createdAt,value
2022-09-10T00:01:40.775Z,100963.04
2022-09-10T00:04:16.093Z,100960.59
2022-09-10T00:06:45.334Z,100959.94
2022-09-10T00:09:14.737Z,100956.81
2022-09-10T00:11:46.192Z,100957.91
2022-09-10T00:14:20.905Z,100953.63
2022-09-10T00:16:50.327Z,100947.50
2022-09-10T00:19:19.921Z,100945.30
2022-09-10T00:21:50.871Z,100946.77
2022-09-10T00:24:19.749Z,100939.73
2022-09-10T00:26:48.551Z,100937.32
2022-09-10T00:29:18.787Z,100937.66
2022-09-10T00:31:48.057Z,100941.92
2022-09-10T00:34:17.582Z,100940.35
2022-09-10T00:36:47.187Z,100937.71
2022-09-10T00:39:18.646Z,100936.55
2022-09-10T00:41:49.742Z,100938.55
2022-09-10T00:44:40.284Z,100939.20
2022-09-10T00:47:34.677Z,100937.86
2022-09-10T00:50:18.001Z,100941.17
2022-09-10T00:52:47.808Z,100942.75
2022-09-10T00:55:18.043Z,100946.30
2022-09-10T00:57:49.574Z,100943.80
2022-09-10T01:00:19.004Z,100942.86
2022-09-10T01:02:48.489Z,100940.03
2022-09-10T01:05:18.428Z,100935.79
2022-09-10T01:07:48.546Z,100939.62
2022-09-10T01:10:28.691Z,100938.02
2022-09-10T01:13:06.498Z,100937.57
2022-09-10T01:16:06.356Z,100932.80
2022-09-10T01:19:15.052Z,100930.85
2022-09-10T01:21:52.740Z,100932.77
2022-09-10T01:24:27.247Z,100930.07
2022-09-10T01:27:36.807Z,100925.20
2022-09-10T01:30:28.133Z,100926.00
2022-09-10T01:33:11.336Z,100920.49
2022-09-10T01:35:51.510Z,100921.06
2022-09-10T01:38:34.882Z,100914.20
2022-09-10T01:41:05.581Z,100914.00
2022-09-10T01:43:38.873Z,100913.88
2022-09-10T01:46:25.664Z,100911.64
2022-09-10T01:49:36.961Z,100909.41
2022-09-10T01:52:51.920Z,100905.82
2022-09-10T01:55:48.882Z,100903.36
2022-09-10T01:58:36.626Z,100905.61
2022-09-10T02:01:43.724Z,100907.50
2022-09-10T02:04:15.476Z,100909.13
2022-09-10T02:06:49.071Z,100907.17
2022-09-10T02:09:20.266Z,100910.36
2022-09-10T02:11:56.389Z,100910.73
2022-09-10T02:14:55.567Z,100907.46
2022-09-10T02:18:14.220Z,100904.37
2022-09-10T02:20:43.316Z,100905.59
2022-09-10T02:23:18.604Z,100904.60
2022-09-10T02:25:49.509Z,100899.51
2022-09-10T02:28:18.933Z,100899.95
2022-09-10T02:30:48.622Z,100896.46
2022-09-10T02:33:18.834Z,100892.15
2022-09-10T02:35:48.259Z,100894.66
2022-09-10T02:38:18.484Z,100893.41
2022-09-10T02:40:50.320Z,100893.33
2022-09-10T02:43:19.068Z,100890.80
2022-09-10T02:45:48.256Z,100893.67
2022-09-10T02:48:18.652Z,100888.44
2022-09-10T02:50:47.389Z,100886.88
2022-09-10T02:53:16.120Z,100885.41
2022-09-10T02:55:47.051Z,100883.86
2022-09-10T02:58:17.071Z,100879.20
2022-09-10T03:00:46.229Z,100873.55
2022-09-10T03:03:16.484Z,100873.02
2022-09-10T03:05:45.224Z,100867.62
2022-09-10T03:08:15.603Z,100864.53
2022-09-10T03:10:47.860Z,100861.70
2022-09-10T03:13:16.873Z,100859.56
2022-09-10T03:15:45.882Z,100860.14
2022-09-10T03:18:16.105Z,100857.38
2022-09-10T03:20:44.772Z,100856.08
2022-09-10T03:23:13.451Z,100856.48
2022-09-10T03:25:42.262Z,100851.89
2022-09-10T03:28:11.351Z,100848.29
2022-09-10T03:30:40.965Z,100850.64
2022-09-10T03:33:12.114Z,100844.09
2022-09-10T03:35:42.257Z,100840.14
2022-09-10T03:38:11.429Z,100836.53
2022-09-10T03:40:41.751Z,100831.66
2022-09-10T03:43:13.194Z,100830.27
2022-09-10T03:45:42.561Z,100825.02
2022-09-10T03:48:11.692Z,100829.50
2022-09-10T03:50:40.495Z,100830.40
2022-09-10T03:53:18.384Z,100828.37
2022-09-10T03:55:49.163Z,100825.30
2022-09-10T03:58:19.074Z,100827.90
2022-09-10T04:00:47.880Z,100832.61
2022-09-10T04:03:16.932Z,100835.52
2022-09-10T04:05:45.715Z,100834.45
2022-09-10T04:08:15.958Z,100835.33
2022-09-10T04:10:44.745Z,100835.39
2022-09-10T04:13:13.628Z,100833.26
2022-09-10T04:15:46.480Z,100833.34
2022-09-10T04:18:15.506Z,100831.42
2022-09-10T04:20:48.469Z,100831.31
2022-09-10T04:23:17.067Z,100835.44
2022-09-10T04:25:47.095Z,100838.23
2022-09-10T04:28:16.434Z,100840.31
2022-09-10T04:30:48.564Z,100838.80
2022-09-10T04:33:17.976Z,100839.38
2022-09-10T04:35:46.642Z,100841.55
2022-09-10T04:38:15.641Z,100842.70
2022-09-10T04:40:48.027Z,100845.11
2022-09-10T04:43:17.725Z,100846.48
2022-09-10T04:45:46.702Z,100840.92
2022-09-10T04:48:15.420Z,100843.86
2022-09-10T04:51:05.560Z,100840.95
2022-09-10T04:53:41.169Z,100845.34
2022-09-10T04:56:11.379Z,100843.58
2022-09-10T04:58:41.722Z,100842.46
2022-09-10T05:01:11.761Z,100849.45
2022-09-10T05:03:41.125Z,100853.88
2022-09-10T05:06:10.832Z,100855.85
2022-09-10T05:08:41.097Z,100856.42
2022-09-10T05:11:11.795Z,100851.78
2022-09-10T05:13:40.579Z,100848.54
2022-09-10T05:16:09.288Z,100851.36
2022-09-10T05:18:39.669Z,100852.39
2022-09-10T05:21:10.473Z,100847.46
2022-09-10T05:23:40.380Z,100848.69
2022-09-10T05:26:10.376Z,100851.17
2022-09-10T05:28:39.162Z,100847.55
2022-09-10T05:31:10.009Z,100849.08
2022-09-10T05:33:40.997Z,100844.35
2022-09-10T05:36:14.018Z,100840.29
2022-09-10T05:38:43.377Z,100838.34
2022-09-10T05:41:12.624Z,100837.80
2022-09-10T05:43:45.925Z,100838.38
2022-09-10T05:46:15.763Z,100832.88
2022-09-10T05:48:47.601Z,100831.11
2022-09-10T05:51:17.848Z,100829.98
2022-09-10T05:53:46.589Z,100828.10
2022-09-10T05:56:15.392Z,100828.63
2022-09-10T05:58:47.848Z,100826.57
2022-09-10T06:01:16.758Z,100824.33
2022-09-10T06:03:46.164Z,100821.27
2022-09-10T06:06:15.555Z,100814.95
2022-09-10T06:08:53.698Z,100813.52
2022-09-10T06:11:37.301Z,100814.80
2022-09-10T06:14:07.445Z,100815.05
2022-09-10T06:16:36.819Z,100811.58
2022-09-10T06:19:05.730Z,100807.21
2022-09-10T06:21:35.838Z,100801.64
2022-09-10T06:24:04.834Z,100787.96
2022-09-10T06:26:37.402Z,100781.48
2022-09-10T06:29:10.008Z,100784.03
2022-09-10T06:31:39.953Z,100780.88
2022-09-10T06:34:12.811Z,100781.52
2022-09-10T06:36:42.313Z,100778.82
2022-09-10T06:39:14.109Z,100780.67
2022-09-10T06:41:49.991Z,100782.42
2022-09-10T06:45:11.740Z,100778.35
2022-09-10T06:48:47.153Z,100770.21
2022-09-10T06:51:18.147Z,100764.10
2022-09-10T06:53:47.451Z,100763.85
2022-09-10T06:56:19.926Z,100765.82
2022-09-10T06:58:49.013Z,100773.35
2022-09-10T07:01:23.133Z,100781.30
2022-09-10T07:04:00.653Z,100784.99
2022-09-10T07:06:34.998Z,100779.83
2022-09-10T07:09:12.162Z,100781.20
2022-09-10T07:11:49.707Z,100780.24
2022-09-10T07:14:19.634Z,100776.59
2022-09-10T07:16:51.608Z,100773.77
2022-09-10T07:19:22.122Z,100773.98
2022-09-10T07:21:52.256Z,100766.10
2022-09-10T07:24:21.760Z,100769.36
2022-09-10T07:27:11.426Z,100764.57
2022-09-10T07:29:43.112Z,100761.48
2022-09-10T07:32:15.987Z,100763.73
2022-09-10T07:34:47.560Z,100759.55
2022-09-10T07:37:19.216Z,100760.92
2022-09-10T07:39:48.400Z,100757.58
2022-09-10T07:42:19.117Z,100755.80
2022-09-10T07:44:48.313Z,100753.08
2022-09-10T07:47:18.006Z,100750.02
2022-09-10T07:49:47.280Z,100749.42
2022-09-10T07:52:17.765Z,100742.46
2022-09-10T07:54:56.612Z,100741.27
2022-09-10T07:57:25.575Z,100731.84
2022-09-10T07:59:55.539Z,100735.73
2022-09-10T08:02:26.140Z,100734.75
2022-09-10T08:04:59.552Z,100731.73
2022-09-10T08:07:28.779Z,100739.47
2022-09-10T08:09:57.603Z,100737.80
2022-09-10T08:12:26.873Z,100744.56
2022-09-10T08:14:57.957Z,100738.93
2022-09-10T08:17:30.345Z,100735.88
2022-09-10T08:19:59.655Z,100733.66
2022-09-10T08:22:28.446Z,100742.02
2022-09-10T08:24:59.271Z,100735.49
2022-09-10T08:27:34.695Z,100741.06
2022-09-10T08:30:06.266Z,100732.18
2022-09-10T08:32:36.288Z,100726.73
2022-09-10T08:35:06.299Z,100722.52
2022-09-10T08:37:35.917Z,100720.27
2022-09-10T08:40:06.138Z,100712.84
2022-09-10T08:42:46.696Z,100706.20
2022-09-10T08:45:21.207Z,100703.20
2022-09-10T08:48:16.129Z,100710.42
2022-09-10T08:51:08.915Z,100707.66
2022-09-10T08:53:52.494Z,100698.46
2022-09-10T08:56:24.827Z,100700.30
2022-09-10T08:59:21.979Z,100692.84
2022-09-10T09:02:02.224Z,100689.86
2022-09-10T09:04:59.534Z,100685.27
2022-09-10T09:07:39.856Z,100683.92
2022-09-10T09:10:54.769Z,100684.80
2022-09-10T09:13:51.320Z,100678.17
2022-09-10T09:16:32.507Z,100678.70
2022-09-10T09:19:15.109Z,100669.85
2022-09-10T09:21:55.825Z,100659.43
2022-09-10T09:24:42.185Z,100656.55
2022-09-10T09:27:20.277Z,100654.02
2022-09-10T09:30:04.669Z,100649.64
2022-09-10T09:32:42.676Z,100637.33
2022-09-10T09:35:25.576Z,100636.45
2022-09-10T09:38:07.262Z,100630.06
2022-09-10T09:40:53.021Z,100626.83
2022-09-10T09:43:33.497Z,100622.34
2022-09-10T09:46:03.487Z,100615.81
2022-09-10T09:48:40.884Z,100607.55
2022-09-10T09:51:13.951Z,100608.27
2022-09-10T09:53:47.676Z,100607.83
2022-09-10T09:56:26.565Z,100608.05
2022-09-10T09:58:55.267Z,100611.34
2022-09-10T10:01:26.430Z,100607.02
2022-09-10T10:04:03.115Z,100612.00
2022-09-10T10:06:47.145Z,100617.00
2022-09-10T10:09:26.116Z,100609.83
2022-09-10T10:12:00.146Z,100605.04
2022-09-10T10:14:41.660Z,100601.85
2022-09-10T10:17:34.274Z,100603.67
2022-09-10T10:20:08.776Z,100606.17
2022-09-10T10:22:40.770Z,100605.53
2022-09-10T10:25:40.556Z,100597.19
2022-09-10T10:28:25.694Z,100599.17
2022-09-10T10:30:58.577Z,100597.95
2022-09-10T10:33:33.805Z,100600.89
2022-09-10T10:36:34.263Z,100597.66
2022-09-10T10:39:44.589Z,100589.02
2022-09-10T10:42:35.885Z,100585.89
2022-09-10T10:45:42.802Z,100576.13
2022-09-10T10:49:03.554Z,100574.77
2022-09-10T10:52:15.556Z,100567.35
2022-09-10T10:55:03.208Z,100562.15
2022-09-10T10:57:50.698Z,100556.73
2022-09-10T11:00:21.457Z,100544.71
2022-09-10T11:03:10.763Z,100541.27
2022-09-10T11:05:45.990Z,100538.17
2022-09-10T11:08:28.136Z,100538.55
2022-09-10T11:11:19.332Z,100536.33
2022-09-10T11:14:49.643Z,100534.89
2022-09-10T11:17:47.614Z,100526.54
2022-09-10T11:20:46.070Z,100516.56
2022-09-10T11:24:08.316Z,100516.09
2022-09-10T11:26:56.232Z,100509.73
2022-09-10T11:29:57.530Z,100511.08
2022-09-10T11:33:15.522Z,100508.32
2022-09-10T11:36:31.577Z,100504.47
2022-09-10T11:39:04.760Z,100497.70
2022-09-10T11:41:42.561Z,100502.46
2022-09-10T11:44:38.990Z,100503.27
2022-09-10T11:47:26.479Z,100500.45
2022-09-10T11:50:11.632Z,100499.85
2022-09-10T11:52:41.285Z,100487.02
2022-09-10T11:55:17.732Z,100484.95
2022-09-10T11:58:20.784Z,100475.83
2022-09-10T12:01:35.263Z,100474.35
2022-09-10T12:04:40.835Z,100464.29
2022-09-10T12:07:49.601Z,100468.52
2022-09-10T12:10:40.123Z,100464.04
2022-09-10T12:13:15.591Z,100456.85
2022-09-10T12:15:58.707Z,100445.59
2022-09-10T12:18:51.259Z,100444.36
2022-09-10T12:21:25.944Z,100445.38
2022-09-10T12:23:56.413Z,100435.26
2022-09-10T12:26:25.564Z,100442.66
2022-09-10T12:29:02.407Z,100441.64
2022-09-10T12:32:28.968Z,100436.59
2022-09-10T12:35:35.031Z,100433.74
2022-09-10T12:38:51.553Z,100424.84
2022-09-10T12:41:35.210Z,100422.38
2022-09-10T12:44:46.005Z,100419.10
2022-09-10T12:47:18.289Z,100411.38
2022-09-10T12:49:51.442Z,100401.77
2022-09-10T12:52:35.945Z,100397.62
2022-09-10T12:55:29.569Z,100392.94
2022-09-10T12:58:33.673Z,100378.92
2022-09-10T13:01:42.653Z,100380.00
2022-09-10T13:04:28.897Z,100376.61
2022-09-10T13:07:20.258Z,100374.19
2022-09-10T13:10:27.577Z,100369.58
2022-09-10T13:13:07.273Z,100363.13
2022-09-10T13:15:40.125Z,100366.33
2022-09-10T13:18:36.066Z,100366.90
2022-09-10T13:21:23.846Z,100367.79
2022-09-10T13:23:57.478Z,100357.98
2022-09-10T13:26:29.470Z,100349.64
2022-09-10T13:29:01.022Z,100348.66
2022-09-10T13:31:40.556Z,100347.21
2022-09-10T13:34:16.474Z,100343.10
2022-09-10T13:37:35.379Z,100339.12
2022-09-10T13:40:39.393Z,100339.92
2022-09-10T13:44:01.403Z,100336.42
2022-09-10T13:46:38.832Z,100328.10
2022-09-10T13:49:37.643Z,100324.40
2022-09-10T13:52:12.605Z,100320.09
2022-09-10T13:54:55.214Z,100315.08
2022-09-10T13:57:48.248Z,100312.30
2022-09-10T14:00:45.381Z,100307.36
2022-09-10T14:03:33.691Z,100299.39
2022-09-10T14:06:27.801Z,100286.81
2022-09-10T14:09:07.485Z,100283.08
2022-09-10T14:11:44.185Z,100277.45
2022-09-10T14:14:37.861Z,100271.36
2022-09-10T14:17:20.254Z,100257.95
2022-09-10T14:20:01.737Z,100247.28
2022-09-10T14:22:32.383Z,100246.94
2022-09-10T14:25:06.555Z,100239.68
2022-09-10T14:27:43.804Z,100241.77
2022-09-10T14:30:18.798Z,100238.27
2022-09-10T14:32:47.752Z,100235.33
2022-09-10T14:35:58.345Z,100236.02
2022-09-10T14:38:40.334Z,100232.98
2022-09-10T14:41:22.013Z,100235.33
2022-09-10T14:44:11.710Z,100227.26
2022-09-10T14:46:57.817Z,100217.92
2022-09-10T14:49:41.632Z,100218.98
2022-09-10T14:52:12.110Z,100218.39
2022-09-10T14:54:41.281Z,100209.70
2022-09-10T14:57:17.242Z,100211.38
2022-09-10T14:59:47.856Z,100212.27
2022-09-10T15:02:26.757Z,100212.35
2022-09-10T15:04:56.027Z,100213.09
2022-09-10T15:07:24.993Z,100212.34
2022-09-10T15:09:54.008Z,100213.98
2022-09-10T15:12:28.291Z,100221.85
2022-09-10T15:14:58.534Z,100219.98
2022-09-10T15:17:27.757Z,100218.58
2022-09-10T15:19:56.513Z,100223.34
2022-09-10T15:22:31.605Z,100212.26
2022-09-10T15:25:16.125Z,100218.23
2022-09-10T15:27:48.216Z,100215.05
2022-09-10T15:30:19.294Z,100206.97
2022-09-10T15:32:53.248Z,100212.71
2022-09-10T15:35:29.179Z,100213.95
2022-09-10T15:38:04.220Z,100212.05
2022-09-10T15:40:34.377Z,100208.39
2022-09-10T15:43:08.541Z,100205.39
2022-09-10T15:45:40.295Z,100214.37
2022-09-10T15:48:14.169Z,100209.73
2022-09-10T15:50:48.143Z,100208.54
2022-09-10T15:53:21.631Z,100209.80
2022-09-10T15:55:52.015Z,100219.96
2022-09-10T15:58:22.252Z,100226.02
2022-09-10T16:00:52.972Z,100230.30
2022-09-10T16:03:25.462Z,100223.23
2022-09-10T16:06:01.972Z,100219.81
2022-09-10T16:08:32.801Z,100216.70
2022-09-10T16:11:13.165Z,100222.67
2022-09-10T16:13:45.322Z,100226.66
2022-09-10T16:16:23.236Z,100227.37
2022-09-10T16:18:54.964Z,100223.96
2022-09-10T16:21:27.768Z,100226.29
2022-09-10T16:23:59.960Z,100228.45
2022-09-10T16:26:38.257Z,100237.39
2022-09-10T16:29:14.742Z,100244.45
2022-09-10T16:31:47.609Z,100248.95
2022-09-10T16:34:20.711Z,100255.41
2022-09-10T16:36:49.582Z,100248.34
2022-09-10T16:39:20.238Z,100251.92
2022-09-10T16:41:50.959Z,100255.17
2022-09-10T16:44:19.949Z,100266.91
2022-09-10T16:46:50.392Z,100269.66
2022-09-10T16:49:20.002Z,100269.51
2022-09-10T16:51:51.983Z,100266.52
2022-09-10T16:54:21.655Z,100265.00
2022-09-10T16:56:50.889Z,100275.54
2022-09-10T16:59:23.513Z,100298.77
2022-09-10T17:01:52.942Z,100335.10
2022-09-10T17:04:28.291Z,100360.09
2022-09-10T17:06:58.804Z,100368.27
2022-09-10T17:09:27.698Z,100349.44
2022-09-10T17:11:56.399Z,100382.23
2022-09-10T17:14:25.281Z,100429.31
2022-09-10T17:16:53.878Z,100457.16
2022-09-10T17:19:26.625Z,100485.46
2022-09-10T17:21:56.937Z,100493.32
2022-09-10T17:24:27.362Z,100589.91
2022-09-10T17:26:56.706Z,100561.80
2022-09-10T17:29:26.697Z,100522.73
2022-09-10T17:31:58.840Z,100487.69
2022-09-10T17:34:28.492Z,100478.92
2022-09-10T17:36:57.250Z,100481.23
2022-09-10T17:39:28.636Z,100478.84
2022-09-10T17:41:58.363Z,100501.02
2022-09-10T17:44:27.872Z,100506.33
2022-09-10T17:46:56.524Z,100498.06
2022-09-10T17:49:25.353Z,100517.64
2022-09-10T17:51:53.986Z,100496.00
2022-09-10T17:54:23.594Z,100478.39
2022-09-10T17:56:52.333Z,100462.55
2022-09-10T17:59:22.315Z,100443.52
2022-09-10T18:01:52.698Z,100428.48
2022-09-10T18:04:21.974Z,100417.32
2022-09-10T18:06:52.553Z,100414.38
2022-09-10T18:09:22.342Z,100430.57
2022-09-10T18:11:51.597Z,100433.64
2022-09-10T18:14:21.760Z,100424.82
2022-09-10T18:16:51.643Z,100408.79
2022-09-10T18:19:20.321Z,100404.64
2022-09-10T18:21:49.600Z,100399.20
2022-09-10T18:24:24.306Z,100408.45
2022-09-10T18:26:54.195Z,100402.41
2022-09-10T18:29:26.427Z,100398.67
2022-09-10T18:31:58.674Z,100398.31
2022-09-10T18:34:31.110Z,100391.87
2022-09-10T18:37:02.472Z,100387.45
2022-09-10T18:39:32.749Z,100380.19
2022-09-10T18:42:02.761Z,100381.09
2022-09-10T18:44:35.437Z,100376.41
2022-09-10T18:47:17.913Z,100369.95
2022-09-10T18:49:51.371Z,100362.18
2022-09-10T18:52:19.969Z,100371.52
2022-09-10T18:54:49.373Z,100382.73
2022-09-10T18:57:17.996Z,100396.65
2022-09-10T18:59:47.940Z,100406.91
2022-09-10T19:02:18.213Z,100411.04
2022-09-10T19:05:09.716Z,100406.34
2022-09-10T19:07:35.561Z,100411.71
2022-09-10T19:10:07.274Z,100419.63
2022-09-10T19:12:36.235Z,100426.79
2022-09-10T19:15:05.210Z,100431.95
2022-09-10T19:17:33.916Z,100439.59
2022-09-10T19:20:03.004Z,100439.49
2022-09-10T19:22:31.704Z,100434.86
2022-09-10T19:25:01.545Z,100427.63
2022-09-10T19:27:30.741Z,100422.11
2022-09-10T19:29:59.292Z,100428.98
2022-09-10T19:32:27.930Z,100432.10
2022-09-10T19:34:56.656Z,100432.04
2022-09-10T19:37:25.331Z,100433.05
2022-09-10T19:39:57.680Z,100438.19
2022-09-10T19:42:26.297Z,100435.36
2022-09-10T19:44:54.945Z,100437.54
2022-09-10T19:47:23.914Z,100436.35
2022-09-10T19:49:52.547Z,100439.29
2022-09-10T19:52:21.835Z,100442.20
2022-09-10T19:54:50.500Z,100440.20
2022-09-10T19:57:19.154Z,100443.69
2022-09-10T19:59:47.786Z,100446.67
2022-09-10T20:02:16.562Z,100447.29
2022-09-10T20:04:45.254Z,100444.08
2022-09-10T20:07:13.808Z,100440.89
2022-09-10T20:09:42.367Z,100447.04
2022-09-10T20:12:35.440Z,100443.97
2022-09-10T20:15:43.491Z,100443.84
2022-09-10T20:18:14.052Z,100450.82
2022-09-10T20:20:43.116Z,100454.51
2022-09-10T20:23:11.684Z,100469.42
2022-09-10T20:25:40.690Z,100469.33
2022-09-10T20:28:09.264Z,100473.92
2022-09-10T20:30:44.037Z,100474.41
2022-09-10T20:33:12.679Z,100470.14
2022-09-10T20:35:48.001Z,100471.48
2022-09-10T20:38:21.635Z,100482.04
2022-09-10T20:40:50.321Z,100495.82
2022-09-10T20:43:19.624Z,100498.56
2022-09-10T20:45:49.726Z,100496.55
2022-09-10T20:48:18.375Z,100494.08
2022-09-10T20:51:05.246Z,100496.86
2022-09-10T20:53:39.475Z,100492.58
2022-09-10T20:56:11.931Z,100494.34
2022-09-10T20:58:41.821Z,100506.84
2022-09-10T21:01:22.411Z,100504.98
2022-09-10T21:03:53.992Z,100515.13
2022-09-10T21:06:31.816Z,100519.51
2022-09-10T21:09:04.263Z,100503.83
2022-09-10T21:11:34.890Z,100527.88
2022-09-10T21:14:07.238Z,100534.80
2022-09-10T21:16:41.676Z,100533.73
2022-09-10T21:19:14.107Z,100537.90
2022-09-10T21:21:45.191Z,100540.17
2022-09-10T21:24:17.257Z,100542.48
2022-09-10T21:26:46.082Z,100544.39
2022-09-10T21:29:21.649Z,100544.94
2022-09-10T21:31:54.873Z,100538.55
2022-09-10T21:34:23.876Z,100537.88
2022-09-10T21:36:52.619Z,100546.33
2022-09-10T21:39:21.378Z,100551.63
2022-09-10T21:41:50.961Z,100549.54
2022-09-10T21:44:25.137Z,100540.20
2022-09-10T21:46:53.791Z,100545.92
2022-09-10T21:49:22.519Z,100542.84
2022-09-10T21:51:51.339Z,100554.55
2022-09-10T21:54:22.399Z,100556.16
2022-09-10T21:56:52.511Z,100559.45
2022-09-10T21:59:21.723Z,100561.91
2022-09-10T22:01:50.574Z,100565.80
2022-09-10T22:04:22.896Z,100564.55
2022-09-10T22:06:54.265Z,100563.12
2022-09-10T22:09:24.690Z,100564.41
2022-09-10T22:11:54.529Z,100557.91
2022-09-10T22:14:25.626Z,100558.19
2022-09-10T22:16:55.223Z,100555.77
2022-09-10T22:19:27.485Z,100554.06
2022-09-10T22:21:57.521Z,100563.30
2022-09-10T22:24:26.500Z,100561.10
2022-09-10T22:26:55.208Z,100561.01
2022-09-10T22:29:24.511Z,100561.23
2022-09-10T22:31:53.275Z,100560.79
2022-09-10T22:34:22.890Z,100553.60
2022-09-10T22:36:51.677Z,100554.71
2022-09-10T22:39:22.544Z,100556.77
2022-09-10T22:41:52.238Z,100556.32
2022-09-10T22:44:21.015Z,100559.09
2022-09-10T22:46:50.048Z,100562.33
2022-09-10T22:49:20.110Z,100566.76
2022-09-10T22:51:49.427Z,100571.56
2022-09-10T22:54:18.418Z,100567.86
2022-09-10T22:56:47.202Z,100569.51
2022-09-10T22:59:16.335Z,100569.98
2022-09-10T23:01:48.705Z,100573.73
2022-09-10T23:04:17.571Z,100578.35
2022-09-10T23:06:46.363Z,100580.23
2022-09-10T23:09:17.881Z,100584.02
2022-09-10T23:11:47.002Z,100586.48
2022-09-10T23:14:21.029Z,100586.42
2022-09-10T23:16:51.981Z,100585.02
2022-09-10T23:19:24.655Z,100576.52
2022-09-10T23:21:55.259Z,100573.80
2022-09-10T23:24:26.620Z,100575.95
2022-09-10T23:26:55.621Z,100579.75
2022-09-10T23:29:24.620Z,100580.59
2022-09-10T23:31:54.354Z,100582.05
2022-09-10T23:34:23.870Z,100580.45
2022-09-10T23:36:53.491Z,100573.00
2022-09-10T23:39:25.611Z,100577.19
2022-09-10T23:41:58.462Z,100574.55
2022-09-10T23:44:27.793Z,100574.21
2022-09-10T23:46:57.371Z,100576.73
2022-09-10T23:49:26.091Z,100572.11
2022-09-10T23:51:54.762Z,100570.77
2022-09-10T23:54:23.770Z,100578.16
2022-09-10T23:56:52.453Z,100576.91
2022-09-10T23:59:22.165Z,100569.91
